Tropical Cyclones
[Index]
Main Index Home Page Stock Weather Photos Extreme Storms Discussion Storm News and Storm Chasing Reports Tropical Cyclones / Hurricanes / Typhoons Weather Data and Links Wild Fires / Bushfires Weather Observation Techniques Weather Picture Catalogue Tornado Pictures and Reports Stock Video Footage and DVDs for sale
Season 2010-2011 Tropical Cyclone BUNE Track Map
Season 2010-2011 Summaries: [BoM-AU] [JTWC-AU] [JTWC-SIO] [JTWC-SPAC] [JTWC-SH]
<<- Previous TC | JTWC 2010-2011 Season | Next TC ->>

click for intensity scale information  Lat/long Grid: Show Hide

 Date Labels: Show Hide

Joint Typhoon Warning Centre Cyclone Data

Name: BUNE

22 Mar 2011 12:00 UTC to 29 Mar 2011 00:00 UTC

    date/time    lat    long     hPa   cat  kts
2011-03-22 12   17.2   175.6W   1010         15          
2011-03-22 18   18.1   176.1W   1004         25          
2011-03-23 00   18.8   177.1W   1004         25          
2011-03-23 06   19.6   177.7W   1000         30          
2011-03-23 12   19.9   178.6W   1000         30          
2011-03-23 18   20.4   179.1W    996         35          
2011-03-24 00   20.6   179.7W    993    1    40          
2011-03-24 06   21.0   179.7W    985    1    50          
2011-03-24 12   21.3   179.8W    982    2    55          
2011-03-24 12   21.3   179.8W    982    2    55          
2011-03-24 18   21.6   179.5W    978    2    60          
2011-03-24 18   21.6   179.5W    978    2    60          
2011-03-25 00   21.9   179.3W    974    2    65          
2011-03-25 00   21.9   179.3W    974    2    65          
2011-03-25 00   21.9   179.3W    974    2    65          
2011-03-25 06   22.3   179.2W    970    2    70          
2011-03-25 06   22.3   179.2W    970    2    70          
2011-03-25 06   22.3   179.2W    970    2    70          
2011-03-25 12   22.5   179.3W    970    2    70          
2011-03-25 12   22.5   179.3W    970    2    70          
2011-03-25 12   22.5   179.3W    970    2    70          
2011-03-25 18   22.6   179.6W    970    2    70          
2011-03-25 18   22.6   179.6W    970    2    70          
2011-03-25 18   22.6   179.6W    970    2    70          
2011-03-26 00   22.9   179.7W    970    2    70          
2011-03-26 00   22.9   179.7W    970    2    70          
2011-03-26 06   23.2   180.0     970    2    70          
2011-03-26 06   23.2   180.0     970    2    70          
2011-03-26 12   23.4   179.6     970    2    70          
2011-03-26 12   23.4   179.6     970    2    70          
2011-03-26 12   23.4   179.6     970    2    70          
2011-03-26 18   23.8   179.3     967    3    75          
2011-03-26 18   23.8   179.3     967    3    75          
2011-03-26 18   23.8   179.3     967    3    75          
2011-03-27 00   24.2   178.9     970    2    70          
2011-03-27 00   24.2   178.9     970    2    70          
2011-03-27 06   24.8   178.8     974    2    65          
2011-03-27 06   24.8   178.8     974    2    65          
2011-03-27 12   25.7   179.0     974    2    65          
2011-03-27 12   25.7   179.0     974    2    65          
2011-03-27 18   26.6   180.0     978    2    60          
2011-03-27 18   26.6   180.0     978    2    60          
2011-03-28 00   27.6   179.0W    985    1    50          
2011-03-28 06   28.6   178.0W    985    1    50          
2011-03-28 12   29.5   176.5W    989    1    45          
2011-03-28 18   31.2   176.2W    989    1    45          
2011-03-29 00   32.7   176.0W    989    1    45          
Winds are 1-min average.

Tropical cyclone tracks developed by Michael Bath using data from the Joint Typhoon Warning Centre Best Tracks and Google Maps.


[Australian Severe Weather index] [Copyright Notice] [Email Contacts] [Search This Site] [Privacy Policy]
Document: tropical_cyclone_bune.htm Updated: 28 June 2017